sensor_id;sensor_type;location;lat;lon;timestamp;pressure;altitude;pressure_sealevel;temperature;humidity
30347;BME280;19047;44.782;20.468;2022-08-20T00:00:39;100193.91;;;30.05;37.33
30347;BME280;19047;44.782;20.468;2022-08-20T00:04:11;100138.31;;;30.05;37.15
30347;BME280;19047;44.782;20.468;2022-08-20T00:07:28;100108.69;;;30.04;37.10
30347;BME280;19047;44.782;20.468;2022-08-20T00:10:59;100092.16;;;30.05;37.02
30347;BME280;19047;44.782;20.468;2022-08-20T00:14:17;100050.44;;;30.06;36.96
30347;BME280;19047;44.782;20.468;2022-08-20T00:17:47;100007.94;;;30.06;36.76
30347;BME280;19047;44.782;20.468;2022-08-20T00:21:07;100008.69;;;30.07;36.90
30347;BME280;19047;44.782;20.468;2022-08-20T00:24:38;100012.94;;;30.06;36.57
30347;BME280;19047;44.782;20.468;2022-08-20T00:27:55;100007.72;;;30.04;36.63
30347;BME280;19047;44.782;20.468;2022-08-20T00:31:25;99995.19;;;30.02;36.93
30347;BME280;19047;44.782;20.468;2022-08-20T00:34:42;99993.44;;;29.99;37.01
30347;BME280;19047;44.782;20.468;2022-08-20T00:38:13;99987.25;;;29.95;37.20
30347;BME280;19047;44.782;20.468;2022-08-20T00:41:30;99994.16;;;29.92;37.37
30347;BME280;19047;44.782;20.468;2022-08-20T00:45:02;99990.84;;;29.88;37.12
30347;BME280;19047;44.782;20.468;2022-08-20T00:48:19;99996.22;;;29.84;37.43
30347;BME280;19047;44.782;20.468;2022-08-20T00:51:50;99945.75;;;29.49;37.53
30347;BME280;19047;44.782;20.468;2022-08-20T00:55:22;99976.09;;;29.70;37.59
30347;BME280;19047;44.782;20.468;2022-08-20T00:58:39;99978.56;;;29.66;37.77
30347;BME280;19047;44.782;20.468;2022-08-20T01:02:12;99987.94;;;29.59;38.18
30347;BME280;19047;44.782;20.468;2022-08-20T01:05:29;100009.78;;;29.55;38.13
30347;BME280;19047;44.782;20.468;2022-08-20T01:09:00;100004.94;;;29.50;38.58
30347;BME280;19047;44.782;20.468;2022-08-20T01:12:17;99997.00;;;29.42;38.76
30347;BME280;19047;44.782;20.468;2022-08-20T01:15:47;100002.91;;;29.37;38.57
30347;BME280;19047;44.782;20.468;2022-08-20T01:19:06;100000.72;;;29.30;38.68
30347;BME280;19047;44.782;20.468;2022-08-20T01:26:18;99989.47;;;29.19;38.62
30347;BME280;19047;44.782;20.468;2022-08-20T01:29:49;99979.16;;;29.10;38.73
30347;BME280;19047;44.782;20.468;2022-08-20T01:33:07;99972.63;;;29.10;38.56
30347;BME280;19047;44.782;20.468;2022-08-20T01:36:42;99933.00;;;28.82;38.32
30347;BME280;19047;44.782;20.468;2022-08-20T01:40:00;99975.44;;;29.02;38.70
30347;BME280;19047;44.782;20.468;2022-08-20T01:43:32;99962.16;;;28.99;38.31
30347;BME280;19047;44.782;20.468;2022-08-20T01:46:49;99961.19;;;28.96;38.57
30347;BME280;19047;44.782;20.468;2022-08-20T01:50:23;99952.88;;;28.93;38.37
30347;BME280;19047;44.782;20.468;2022-08-20T01:53:47;99964.19;;;28.91;38.59
30347;BME280;19047;44.782;20.468;2022-08-20T01:57:19;99948.78;;;28.88;38.75
30347;BME280;19047;44.782;20.468;2022-08-20T02:00:39;99935.53;;;28.85;38.67
30347;BME280;19047;44.782;20.468;2022-08-20T02:04:10;99951.81;;;28.83;38.96
30347;BME280;19047;44.782;20.468;2022-08-20T02:07:27;99940.00;;;28.60;38.96
30347;BME280;19047;44.782;20.468;2022-08-20T02:10:56;99956.91;;;28.77;38.88
30347;BME280;19047;44.782;20.468;2022-08-20T02:14:13;99959.34;;;28.73;39.31
30347;BME280;19047;44.782;20.468;2022-08-20T02:17:43;99968.88;;;28.67;39.08
30347;BME280;19047;44.782;20.468;2022-08-20T02:21:00;99970.00;;;28.64;39.41
30347;BME280;19047;44.782;20.468;2022-08-20T02:24:31;99960.94;;;28.60;39.33
30347;BME280;19047;44.782;20.468;2022-08-20T02:27:49;99948.34;;;28.37;39.36
30347;BME280;19047;44.782;20.468;2022-08-20T02:31:21;99963.38;;;28.56;39.87
30347;BME280;19047;44.782;20.468;2022-08-20T02:34:39;99966.06;;;28.54;39.92
30347;BME280;19047;44.782;20.468;2022-08-20T02:38:09;99927.81;;;28.20;40.30
30347;BME280;19047;44.782;20.468;2022-08-20T02:41:26;99983.97;;;28.47;40.39
30347;BME280;19047;44.782;20.468;2022-08-20T02:44:56;99996.03;;;28.46;40.28
30347;BME280;19047;44.782;20.468;2022-08-20T02:48:16;100012.31;;;28.43;40.58
30347;BME280;19047;44.782;20.468;2022-08-20T02:51:47;100027.81;;;28.40;40.92
30347;BME280;19047;44.782;20.468;2022-08-20T02:55:04;99989.06;;;28.02;41.17
30347;BME280;19047;44.782;20.468;2022-08-20T02:58:35;100031.91;;;28.31;41.14
30347;BME280;19047;44.782;20.468;2022-08-20T03:01:53;100042.44;;;28.29;41.11
30347;BME280;19047;44.782;20.468;2022-08-20T03:05:24;100045.63;;;28.25;41.65
30347;BME280;19047;44.782;20.468;2022-08-20T03:08:41;100026.38;;;28.20;41.56
30347;BME280;19047;44.782;20.468;2022-08-20T03:12:12;100010.75;;;28.16;42.01
30347;BME280;19047;44.782;20.468;2022-08-20T03:15:31;100013.75;;;28.10;41.93
30347;BME280;19047;44.782;20.468;2022-08-20T03:19:01;100006.75;;;28.06;42.41
30347;BME280;19047;44.782;20.468;2022-08-20T03:22:18;99994.06;;;28.01;42.36
30347;BME280;19047;44.782;20.468;2022-08-20T03:25:49;99996.47;;;27.97;42.45
30347;BME280;19047;44.782;20.468;2022-08-20T03:29:06;100001.78;;;27.93;42.68
30347;BME280;19047;44.782;20.468;2022-08-20T03:32:37;100005.53;;;27.88;42.75
30347;BME280;19047;44.782;20.468;2022-08-20T03:35:54;99997.78;;;27.83;42.79
30347;BME280;19047;44.782;20.468;2022-08-20T03:39:24;100011.72;;;27.79;43.15
30347;BME280;19047;44.782;20.468;2022-08-20T03:42:41;100019.88;;;27.75;43.29
30347;BME280;19047;44.782;20.468;2022-08-20T03:46:11;100012.91;;;27.70;43.13
30347;BME280;19047;44.782;20.468;2022-08-20T03:49:28;100021.09;;;27.66;43.19
30347;BME280;19047;44.782;20.468;2022-08-20T03:52:58;100033.69;;;27.63;43.37
30347;BME280;19047;44.782;20.468;2022-08-20T03:56:15;100048.59;;;27.61;43.23
30347;BME280;19047;44.782;20.468;2022-08-20T03:59:47;100057.56;;;27.58;43.28
30347;BME280;19047;44.782;20.468;2022-08-20T04:03:04;100055.44;;;27.58;43.30
30347;BME280;19047;44.782;20.468;2022-08-20T04:06:34;100067.16;;;27.60;43.46
30347;BME280;19047;44.782;20.468;2022-08-20T04:09:51;100111.28;;;27.63;43.57
30347;BME280;19047;44.782;20.468;2022-08-20T04:13:22;100141.81;;;27.66;43.71
30347;BME280;19047;44.782;20.468;2022-08-20T04:16:40;100160.59;;;27.67;44.10
30347;BME280;19047;44.782;20.468;2022-08-20T04:20:13;100208.34;;;27.70;44.35
30347;BME280;19047;44.782;20.468;2022-08-20T04:23:30;100173.09;;;27.70;45.40
30347;BME280;19047;44.782;20.468;2022-08-20T04:27:01;100174.09;;;27.53;47.17
30347;BME280;19047;44.782;20.468;2022-08-20T04:30:18;100208.97;;;27.25;48.43
30347;BME280;19047;44.782;20.468;2022-08-20T04:33:48;100222.41;;;26.93;49.38
30347;BME280;19047;44.782;20.468;2022-08-20T04:37:05;100158.50;;;26.63;50.49
30347;BME280;19047;44.782;20.468;2022-08-20T04:40:36;100080.34;;;26.32;51.93
30347;BME280;19047;44.782;20.468;2022-08-20T04:44:14;99936.09;;;25.94;53.33
30347;BME280;19047;44.782;20.468;2022-08-20T04:47:45;99906.78;;;25.53;55.39
30347;BME280;19047;44.782;20.468;2022-08-20T04:51:06;99863.94;;;24.87;56.05
30347;BME280;19047;44.782;20.468;2022-08-20T04:54:37;99938.94;;;24.74;57.89
30347;BME280;19047;44.782;20.468;2022-08-20T04:57:55;99915.72;;;24.43;60.30
30347;BME280;19047;44.782;20.468;2022-08-20T05:01:25;99896.59;;;24.15;61.85
30347;BME280;19047;44.782;20.468;2022-08-20T05:04:42;99923.22;;;23.88;62.05
30347;BME280;19047;44.782;20.468;2022-08-20T05:08:16;99970.53;;;23.67;62.10
30347;BME280;19047;44.782;20.468;2022-08-20T05:11:34;100028.16;;;23.48;62.77
30347;BME280;19047;44.782;20.468;2022-08-20T05:15:03;100078.00;;;23.36;63.75
30347;BME280;19047;44.782;20.468;2022-08-20T05:18:22;100118.19;;;23.27;64.34
30347;BME280;19047;44.782;20.468;2022-08-20T05:21:54;100093.00;;;23.20;65.24
30347;BME280;19047;44.782;20.468;2022-08-20T05:25:14;100068.84;;;23.15;65.50
30347;BME280;19047;44.782;20.468;2022-08-20T05:28:46;100050.19;;;23.14;66.16
30347;BME280;19047;44.782;20.468;2022-08-20T05:32:04;100064.97;;;23.13;66.75
30347;BME280;19047;44.782;20.468;2022-08-20T05:35:35;100081.59;;;23.14;67.01
30347;BME280;19047;44.782;20.468;2022-08-20T05:38:54;100102.34;;;23.20;67.38
30347;BME280;19047;44.782;20.468;2022-08-20T05:42:24;100099.50;;;23.26;67.74
30347;BME280;19047;44.782;20.468;2022-08-20T05:45:43;100101.09;;;23.33;68.40
30347;BME280;19047;44.782;20.468;2022-08-20T05:49:16;100102.91;;;23.41;68.57
30347;BME280;19047;44.782;20.468;2022-08-20T05:52:42;100118.75;;;23.48;68.50
30347;BME280;19047;44.782;20.468;2022-08-20T05:56:12;100129.97;;;23.57;68.83
30347;BME280;19047;44.782;20.468;2022-08-20T05:59:43;100150.75;;;23.63;69.40
30347;BME280;19047;44.782;20.468;2022-08-20T06:03:00;100174.38;;;23.69;69.49
30347;BME280;19047;44.782;20.468;2022-08-20T06:06:55;100169.97;;;23.74;69.52
30347;BME280;19047;44.782;20.468;2022-08-20T06:10:13;100158.53;;;23.62;70.08
30347;BME280;19047;44.782;20.468;2022-08-20T06:13:44;100158.78;;;23.81;70.33
30347;BME280;19047;44.782;20.468;2022-08-20T06:17:02;100172.56;;;23.83;70.77
30347;BME280;19047;44.782;20.468;2022-08-20T06:20:33;100198.00;;;23.81;70.76
30347;BME280;19047;44.782;20.468;2022-08-20T06:23:50;100208.66;;;23.80;71.21
30347;BME280;19047;44.782;20.468;2022-08-20T06:27:21;100224.00;;;23.77;71.21
30347;BME280;19047;44.782;20.468;2022-08-20T06:30:38;100250.72;;;23.57;71.40
30347;BME280;19047;44.782;20.468;2022-08-20T06:34:09;100235.53;;;23.40;71.78
30347;BME280;19047;44.782;20.468;2022-08-20T06:37:27;100267.56;;;23.55;72.04
30347;BME280;19047;44.782;20.468;2022-08-20T06:40:59;100272.25;;;23.70;72.06
30347;BME280;19047;44.782;20.468;2022-08-20T06:44:16;100274.88;;;23.68;72.44
30347;BME280;19047;44.782;20.468;2022-08-20T06:47:47;100251.38;;;23.41;72.74
30347;BME280;19047;44.782;20.468;2022-08-20T06:51:05;100282.66;;;23.67;72.82
30347;BME280;19047;44.782;20.468;2022-08-20T06:54:36;100303.97;;;23.66;73.11
30347;BME280;19047;44.782;20.468;2022-08-20T06:57:57;100260.31;;;23.65;73.37
30347;BME280;19047;44.782;20.468;2022-08-20T07:01:27;100226.06;;;23.65;73.82
30347;BME280;19047;44.782;20.468;2022-08-20T07:04:44;100218.50;;;23.62;73.75
30347;BME280;19047;44.782;20.468;2022-08-20T07:08:15;100189.66;;;23.60;74.17
30347;BME280;19047;44.782;20.468;2022-08-20T07:11:34;100163.47;;;23.56;74.38
30347;BME280;19047;44.782;20.468;2022-08-20T07:15:06;100197.19;;;23.52;74.69
30347;BME280;19047;44.782;20.468;2022-08-20T07:18:23;100205.72;;;23.47;74.85
30347;BME280;19047;44.782;20.468;2022-08-20T07:21:56;100228.53;;;23.41;74.86
30347;BME280;19047;44.782;20.468;2022-08-20T07:25:15;100232.94;;;23.37;75.05
30347;BME280;19047;44.782;20.468;2022-08-20T07:28:45;100210.34;;;23.33;75.54
30347;BME280;19047;44.782;20.468;2022-08-20T07:32:02;100188.53;;;23.30;75.71
30347;BME280;19047;44.782;20.468;2022-08-20T07:35:50;100177.91;;;23.25;75.99
30347;BME280;19047;44.782;20.468;2022-08-20T07:39:07;100191.84;;;23.17;75.64
30347;BME280;19047;44.782;20.468;2022-08-20T07:42:38;100170.94;;;22.83;76.26
30347;BME280;19047;44.782;20.468;2022-08-20T07:45:58;100193.91;;;23.11;76.59
30347;BME280;19047;44.782;20.468;2022-08-20T07:49:39;100214.41;;;23.10;76.76
30347;BME280;19047;44.782;20.468;2022-08-20T07:53:04;100220.06;;;23.04;76.95
30347;BME280;19047;44.782;20.468;2022-08-20T07:56:35;100220.00;;;22.87;77.11
30347;BME280;19047;44.782;20.468;2022-08-20T07:59:52;100257.44;;;23.01;76.93
30347;BME280;19047;44.782;20.468;2022-08-20T08:03:25;100266.00;;;23.01;77.29
30347;BME280;19047;44.782;20.468;2022-08-20T08:06:43;100260.56;;;23.03;77.24
30347;BME280;19047;44.782;20.468;2022-08-20T08:10:14;100259.00;;;23.07;77.70
30347;BME280;19047;44.782;20.468;2022-08-20T08:13:33;100266.84;;;23.18;78.00
30347;BME280;19047;44.782;20.468;2022-08-20T08:17:04;100278.59;;;23.31;78.07
30347;BME280;19047;44.782;20.468;2022-08-20T08:20:22;100280.47;;;23.45;78.06
30347;BME280;19047;44.782;20.468;2022-08-20T08:23:52;100279.50;;;23.59;78.01
30347;BME280;19047;44.782;20.468;2022-08-20T08:27:12;100292.81;;;23.74;77.73
30347;BME280;19047;44.782;20.468;2022-08-20T08:30:44;100307.63;;;23.83;77.64
30347;BME280;19047;44.782;20.468;2022-08-20T08:34:01;100301.41;;;23.90;77.89
30347;BME280;19047;44.782;20.468;2022-08-20T08:37:31;100301.44;;;23.96;77.72
30347;BME280;19047;44.782;20.468;2022-08-20T08:40:50;100303.78;;;23.97;77.88
30347;BME280;19047;44.782;20.468;2022-08-20T08:44:21;100292.34;;;24.03;77.82
30347;BME280;19047;44.782;20.468;2022-08-20T08:47:39;100284.59;;;24.09;77.76
30347;BME280;19047;44.782;20.468;2022-08-20T08:51:11;100282.50;;;24.15;78.18
30347;BME280;19047;44.782;20.468;2022-08-20T08:54:28;100262.75;;;24.12;77.97
30347;BME280;19047;44.782;20.468;2022-08-20T08:58:01;100249.03;;;24.32;77.81
30347;BME280;19047;44.782;20.468;2022-08-20T09:01:19;100252.38;;;24.36;77.87
30347;BME280;19047;44.782;20.468;2022-08-20T09:04:51;100258.38;;;24.38;77.36
30347;BME280;19047;44.782;20.468;2022-08-20T09:08:12;100274.75;;;24.38;77.51
30347;BME280;19047;44.782;20.468;2022-08-20T09:11:47;100290.84;;;24.35;77.65
30347;BME280;19047;44.782;20.468;2022-08-20T09:15:04;100303.59;;;24.34;77.41
30347;BME280;19047;44.782;20.468;2022-08-20T09:18:35;100280.47;;;24.32;77.61
30347;BME280;19047;44.782;20.468;2022-08-20T09:21:52;100294.22;;;24.34;77.55
30347;BME280;19047;44.782;20.468;2022-08-20T09:25:23;100292.69;;;24.38;77.84
30347;BME280;19047;44.782;20.468;2022-08-20T09:28:40;100273.97;;;24.43;77.92
30347;BME280;19047;44.782;20.468;2022-08-20T09:32:15;100236.28;;;24.39;77.90
30347;BME280;19047;44.782;20.468;2022-08-20T09:35:32;100240.94;;;24.53;77.92
30347;BME280;19047;44.782;20.468;2022-08-20T09:39:02;100289.06;;;24.55;77.53
30347;BME280;19047;44.782;20.468;2022-08-20T09:42:23;100323.63;;;24.51;77.58
30347;BME280;19047;44.782;20.468;2022-08-20T09:45:53;100347.53;;;24.48;77.86
30347;BME280;19047;44.782;20.468;2022-08-20T09:49:12;100336.63;;;24.47;77.81
30347;BME280;19047;44.782;20.468;2022-08-20T09:52:45;100305.69;;;24.45;77.96
30347;BME280;19047;44.782;20.468;2022-08-20T09:56:03;100284.63;;;24.43;77.79
30347;BME280;19047;44.782;20.468;2022-08-20T09:59:33;100214.66;;;24.05;78.03
30347;BME280;19047;44.782;20.468;2022-08-20T10:02:51;100249.53;;;24.31;78.12
30347;BME280;19047;44.782;20.468;2022-08-20T10:06:24;100222.75;;;24.23;78.37
30347;BME280;19047;44.782;20.468;2022-08-20T10:09:41;100231.03;;;24.15;78.62
30347;BME280;19047;44.782;20.468;2022-08-20T10:13:13;100224.28;;;24.07;78.36
30347;BME280;19047;44.782;20.468;2022-08-20T10:16:34;100230.78;;;24.02;78.41
30347;BME280;19047;44.782;20.468;2022-08-20T10:20:04;100248.72;;;23.97;78.52
30347;BME280;19047;44.782;20.468;2022-08-20T10:23:25;100273.88;;;23.93;78.47
30347;BME280;19047;44.782;20.468;2022-08-20T10:26:55;100307.66;;;23.94;79.02
30347;BME280;19047;44.782;20.468;2022-08-20T10:30:12;100355.22;;;23.97;79.35
30347;BME280;19047;44.782;20.468;2022-08-20T10:33:46;100372.38;;;24.03;79.45
30347;BME280;19047;44.782;20.468;2022-08-20T10:37:06;100397.34;;;24.08;79.52
30347;BME280;19047;44.782;20.468;2022-08-20T10:40:38;100400.72;;;24.12;79.54
30347;BME280;19047;44.782;20.468;2022-08-20T10:43:58;100386.97;;;24.11;79.58
30347;BME280;19047;44.782;20.468;2022-08-20T10:47:28;100410.69;;;24.22;79.53
30347;BME280;19047;44.782;20.468;2022-08-20T10:50:45;100391.97;;;24.27;79.55
30347;BME280;19047;44.782;20.468;2022-08-20T10:54:18;100366.00;;;24.30;79.65
30347;BME280;19047;44.782;20.468;2022-08-20T10:57:36;100357.16;;;24.34;79.36
30347;BME280;19047;44.782;20.468;2022-08-20T11:01:06;100326.75;;;24.36;79.20
30347;BME280;19047;44.782;20.468;2022-08-20T11:04:23;100319.72;;;24.37;78.98
30347;BME280;19047;44.782;20.468;2022-08-20T11:07:53;100325.72;;;24.40;79.21
30347;BME280;19047;44.782;20.468;2022-08-20T11:11:15;100290.59;;;24.28;79.00
30347;BME280;19047;44.782;20.468;2022-08-20T11:14:47;100296.59;;;24.47;79.25
30347;BME280;19047;44.782;20.468;2022-08-20T11:18:14;100265.13;;;24.52;79.13
30347;BME280;19047;44.782;20.468;2022-08-20T11:21:45;100250.81;;;24.58;78.83
30347;BME280;19047;44.782;20.468;2022-08-20T11:25:03;100254.47;;;24.64;78.99
30347;BME280;19047;44.782;20.468;2022-08-20T11:28:37;100224.53;;;24.70;78.52
30347;BME280;19047;44.782;20.468;2022-08-20T11:31:55;100134.34;;;24.53;78.99
30347;BME280;19047;44.782;20.468;2022-08-20T11:35:26;100130.13;;;24.70;79.09
30347;BME280;19047;44.782;20.468;2022-08-20T11:38:43;100156.34;;;24.97;79.20
30347;BME280;19047;44.782;20.468;2022-08-20T11:42:13;100151.88;;;25.07;79.18
30347;BME280;19047;44.782;20.468;2022-08-20T11:45:30;100153.63;;;25.16;79.06
30347;BME280;19047;44.782;20.468;2022-08-20T11:49:00;100180.41;;;25.24;78.97
30347;BME280;19047;44.782;20.468;2022-08-20T11:52:17;100162.50;;;25.12;78.45
30347;BME280;19047;44.782;20.468;2022-08-20T11:55:47;100204.81;;;25.41;78.29
30347;BME280;19047;44.782;20.468;2022-08-20T11:59:05;100186.69;;;25.17;78.07
30347;BME280;19047;44.782;20.468;2022-08-20T12:02:35;100242.72;;;25.64;78.08
30347;BME280;19047;44.782;20.468;2022-08-20T12:05:52;100274.41;;;25.77;77.92
30347;BME280;19047;44.782;20.468;2022-08-20T12:09:23;100285.56;;;25.92;77.94
30347;BME280;19047;44.782;20.468;2022-08-20T12:12:40;100280.00;;;26.05;77.54
30347;BME280;19047;44.782;20.468;2022-08-20T12:16:11;100299.44;;;26.18;77.26
30347;BME280;19047;44.782;20.468;2022-08-20T12:19:28;100328.56;;;26.33;77.16
30347;BME280;19047;44.782;20.468;2022-08-20T12:22:59;100320.84;;;26.17;76.65
30347;BME280;19047;44.782;20.468;2022-08-20T12:26:16;100364.69;;;26.53;76.32
30347;BME280;19047;44.782;20.468;2022-08-20T12:29:48;100383.38;;;26.65;76.48
30347;BME280;19047;44.782;20.468;2022-08-20T12:33:07;100382.00;;;26.72;76.17
30347;BME280;19047;44.782;20.468;2022-08-20T12:36:37;100386.41;;;26.78;75.97
30347;BME280;19047;44.782;20.468;2022-08-20T12:39:55;100396.53;;;26.85;75.53
30347;BME280;19047;44.782;20.468;2022-08-20T12:43:25;100398.56;;;26.90;75.24
30347;BME280;19047;44.782;20.468;2022-08-20T12:46:42;100401.94;;;26.94;74.74
30347;BME280;19047;44.782;20.468;2022-08-20T12:50:18;100392.28;;;26.97;74.92
30347;BME280;19047;44.782;20.468;2022-08-20T12:53:38;100372.91;;;27.03;74.29
30347;BME280;19047;44.782;20.468;2022-08-20T12:57:13;100361.88;;;27.07;74.06
30347;BME280;19047;44.782;20.468;2022-08-20T13:00:31;100327.91;;;27.11;73.89
30347;BME280;19047;44.782;20.468;2022-08-20T13:04:04;100305.72;;;27.12;73.80
30347;BME280;19047;44.782;20.468;2022-08-20T13:07:21;100306.25;;;27.10;73.64
30347;BME280;19047;44.782;20.468;2022-08-20T13:10:52;100291.41;;;27.06;73.54
30347;BME280;19047;44.782;20.468;2022-08-20T13:14:09;100277.66;;;26.99;73.51
30347;BME280;19047;44.782;20.468;2022-08-20T13:17:40;100238.34;;;26.88;73.57
30347;BME280;19047;44.782;20.468;2022-08-20T13:20:57;100229.88;;;26.72;73.44
30347;BME280;19047;44.782;20.468;2022-08-20T13:24:28;100223.31;;;26.52;73.40
30347;BME280;19047;44.782;20.468;2022-08-20T13:27:53;100203.94;;;26.34;73.77
30347;BME280;19047;44.782;20.468;2022-08-20T13:31:27;100213.19;;;26.16;74.06
30347;BME280;19047;44.782;20.468;2022-08-20T13:34:46;100227.09;;;26.01;74.46
30347;BME280;19047;44.782;20.468;2022-08-20T13:38:17;100216.75;;;25.92;75.01
30347;BME280;19047;44.782;20.468;2022-08-20T13:41:34;100199.56;;;25.87;75.48
30347;BME280;19047;44.782;20.468;2022-08-20T13:45:05;100206.41;;;25.84;75.52
30347;BME280;19047;44.782;20.468;2022-08-20T13:48:22;100140.47;;;25.42;75.81
30347;BME280;19047;44.782;20.468;2022-08-20T13:51:52;100195.13;;;25.91;75.97
30347;BME280;19047;44.782;20.468;2022-08-20T13:55:11;100192.97;;;25.97;75.89
30347;BME280;19047;44.782;20.468;2022-08-20T13:58:42;100175.47;;;26.06;75.96
30347;BME280;19047;44.782;20.468;2022-08-20T14:01:59;100171.75;;;26.11;75.59
30347;BME280;19047;44.782;20.468;2022-08-20T14:05:30;100181.81;;;26.24;75.29
30347;BME280;19047;44.782;20.468;2022-08-20T14:08:46;100190.66;;;26.31;75.16
30347;BME280;19047;44.782;20.468;2022-08-20T14:12:17;100185.88;;;26.39;74.93
30347;BME280;19047;44.782;20.468;2022-08-20T14:15:35;100178.25;;;26.47;74.67
30347;BME280;19047;44.782;20.468;2022-08-20T14:19:04;100167.47;;;26.53;74.91
30347;BME280;19047;44.782;20.468;2022-08-20T14:22:21;100163.53;;;26.57;75.07
30347;BME280;19047;44.782;20.468;2022-08-20T14:25:52;100150.22;;;26.59;74.91
30347;BME280;19047;44.782;20.468;2022-08-20T14:29:09;100140.50;;;26.62;74.81
30347;BME280;19047;44.782;20.468;2022-08-20T14:32:44;100144.34;;;26.70;75.17
30347;BME280;19047;44.782;20.468;2022-08-20T14:36:02;100143.97;;;26.79;75.18
30347;BME280;19047;44.782;20.468;2022-08-20T14:39:32;100154.31;;;26.88;74.89
30347;BME280;19047;44.782;20.468;2022-08-20T14:42:49;100168.31;;;26.97;74.58
30347;BME280;19047;44.782;20.468;2022-08-20T14:46:19;100172.91;;;27.06;74.14
30347;BME280;19047;44.782;20.468;2022-08-20T14:49:36;100182.47;;;27.14;73.74
30347;BME280;19047;44.782;20.468;2022-08-20T14:53:06;100155.13;;;26.83;73.59
30347;BME280;19047;44.782;20.468;2022-08-20T14:56:22;100163.06;;;27.01;73.10
30347;BME280;19047;44.782;20.468;2022-08-20T14:59:53;100218.03;;;27.30;73.37
30347;BME280;19047;44.782;20.468;2022-08-20T15:03:10;100208.34;;;27.33;73.12
30347;BME280;19047;44.782;20.468;2022-08-20T15:06:44;100205.16;;;27.36;73.45
30347;BME280;19047;44.782;20.468;2022-08-20T15:10:01;100215.31;;;27.37;73.29
30347;BME280;19047;44.782;20.468;2022-08-20T15:13:33;100225.50;;;27.38;73.04
30347;BME280;19047;44.782;20.468;2022-08-20T15:16:50;100217.66;;;27.39;73.08
30347;BME280;19047;44.782;20.468;2022-08-20T15:20:23;100219.22;;;27.40;73.08
30347;BME280;19047;44.782;20.468;2022-08-20T15:23:40;100244.53;;;27.41;72.89
30347;BME280;19047;44.782;20.468;2022-08-20T15:27:19;100231.47;;;27.40;73.00
30347;BME280;19047;44.782;20.468;2022-08-20T15:30:38;100234.88;;;27.39;72.66
30347;BME280;19047;44.782;20.468;2022-08-20T15:34:13;100236.97;;;27.38;72.91
30347;BME280;19047;44.782;20.468;2022-08-20T15:37:29;100185.88;;;27.12;72.64
30347;BME280;19047;44.782;20.468;2022-08-20T15:40:59;100222.16;;;27.34;72.33
30347;BME280;19047;44.782;20.468;2022-08-20T15:44:16;100223.47;;;27.33;72.43
30347;BME280;19047;44.782;20.468;2022-08-20T15:54:52;100218.97;;;27.38;72.19
30347;BME280;19047;44.782;20.468;2022-08-20T16:12:32;100208.19;;;27.25;72.87
30347;BME280;19047;44.782;20.468;2022-08-20T16:16:04;100200.94;;;27.18;72.75
30347;BME280;19047;44.782;20.468;2022-08-20T16:19:24;100203.91;;;27.13;73.08
30347;BME280;19047;44.782;20.468;2022-08-20T16:23:00;100216.75;;;27.06;73.07
30347;BME280;19047;44.782;20.468;2022-08-20T16:30:11;100180.41;;;26.66;73.19
30347;BME280;19047;44.782;20.468;2022-08-20T16:33:40;100234.41;;;26.92;73.68
30347;BME280;19047;44.782;20.468;2022-08-20T16:41:06;100222.25;;;26.80;73.91
30347;BME280;19047;44.782;20.468;2022-08-20T16:44:35;100175.91;;;26.46;73.98
30347;BME280;19047;44.782;20.468;2022-08-20T16:48:06;100211.91;;;26.71;74.48
30347;BME280;19047;44.782;20.468;2022-08-20T16:51:28;100196.31;;;26.67;74.42
30347;BME280;19047;44.782;20.468;2022-08-20T16:55:02;100191.38;;;26.62;74.56
30347;BME280;19047;44.782;20.468;2022-08-20T16:58:19;100199.53;;;26.58;74.59
30347;BME280;19047;44.782;20.468;2022-08-20T17:02:05;100199.03;;;26.53;74.50
30347;BME280;19047;44.782;20.468;2022-08-20T17:05:22;100207.19;;;26.49;74.54
30347;BME280;19047;44.782;20.468;2022-08-20T17:08:53;100207.22;;;26.44;74.63
30347;BME280;19047;44.782;20.468;2022-08-20T17:12:14;100214.56;;;26.39;74.90
30347;BME280;19047;44.782;20.468;2022-08-20T17:15:51;100212.53;;;26.34;74.95
30347;BME280;19047;44.782;20.468;2022-08-20T17:19:13;100222.50;;;26.28;74.81
30347;BME280;19047;44.782;20.468;2022-08-20T17:22:48;100228.78;;;26.21;74.91
30347;BME280;19047;44.782;20.468;2022-08-20T17:26:15;100235.09;;;26.13;75.29
30347;BME280;19047;44.782;20.468;2022-08-20T17:29:49;100238.56;;;26.06;75.40
30347;BME280;19047;44.782;20.468;2022-08-20T17:33:26;100240.66;;;26.00;75.55
30347;BME280;19047;44.782;20.468;2022-08-20T17:37:19;100242.56;;;25.92;75.63
30347;BME280;19047;44.782;20.468;2022-08-20T17:40:39;100254.56;;;25.85;75.67
30347;BME280;19047;44.782;20.468;2022-08-20T17:44:19;100250.72;;;25.77;75.68
30347;BME280;19047;44.782;20.468;2022-08-20T17:47:37;100244.00;;;25.69;75.83
30347;BME280;19047;44.782;20.468;2022-08-20T17:51:15;100241.19;;;25.63;76.22
30347;BME280;19047;44.782;20.468;2022-08-20T17:54:36;100247.41;;;25.56;76.16
30347;BME280;19047;44.782;20.468;2022-08-20T17:58:12;100245.13;;;25.49;76.62
30347;BME280;19047;44.782;20.468;2022-08-20T18:01:30;100241.25;;;25.41;76.83
30347;BME280;19047;44.782;20.468;2022-08-20T18:05:12;100245.69;;;25.36;76.80
30347;BME280;19047;44.782;20.468;2022-08-20T18:09:12;100215.63;;;25.07;77.15
30347;BME280;19047;44.782;20.468;2022-08-20T18:12:26;100237.94;;;25.20;77.14